createdAt,value
2022-08-07T00:00:35.844Z,6.30
2022-08-07T00:02:44.514Z,7.93
2022-08-07T00:04:46.618Z,7.65
2022-08-07T00:06:51.620Z,8.65
2022-08-07T00:08:54.033Z,6.50
2022-08-07T00:10:58.368Z,9.50
2022-08-07T00:13:09.895Z,8.07
2022-08-07T00:15:24.431Z,9.38
2022-08-07T00:17:38.313Z,7.35
2022-08-07T00:20:00.938Z,9.60
2022-08-07T00:22:03.346Z,9.32
2022-08-07T00:24:05.835Z,9.27
2022-08-07T00:26:18.484Z,9.03
2022-08-07T00:28:21.967Z,10.13
2022-08-07T00:30:27.506Z,6.93
2022-08-07T00:32:30.334Z,11.95
2022-08-07T00:34:36.913Z,25.58
2022-08-07T00:36:42.682Z,30.23
2022-08-07T00:38:45.343Z,42.17
2022-08-07T00:40:47.692Z,28.75
2022-08-07T00:42:50.272Z,25.60
2022-08-07T00:44:54.545Z,29.20
2022-08-07T00:46:56.407Z,29.35
2022-08-07T00:48:58.313Z,22.05
2022-08-07T00:51:04.489Z,8.32
2022-08-07T00:53:06.619Z,11.13
2022-08-07T00:55:12.623Z,11.15
2022-08-07T00:57:19.923Z,5.25
2022-08-07T00:59:35.031Z,6.95
2022-08-07T01:01:41.476Z,6.55
2022-08-07T01:03:57.276Z,7.78
2022-08-07T01:06:02.220Z,9.20
2022-08-07T01:08:04.244Z,5.97
2022-08-07T01:10:11.002Z,10.95
2022-08-07T01:12:29.133Z,7.82
2022-08-07T01:14:32.410Z,5.95
2022-08-07T01:16:39.325Z,5.07
2022-08-07T01:18:45.318Z,6.03
2022-08-07T01:23:32.691Z,5.63
2022-08-07T01:25:55.234Z,4.22
2022-08-07T01:27:58.361Z,7.93
2022-08-07T01:30:02.838Z,7.50
2022-08-07T01:32:05.533Z,5.80
2022-08-07T01:34:14.084Z,5.00
2022-08-07T01:36:16.907Z,7.18
2022-08-07T01:38:24.913Z,5.40
2022-08-07T01:40:29.004Z,6.28
2022-08-07T01:42:39.887Z,8.68
2022-08-07T01:44:53.461Z,6.78
2022-08-07T01:46:55.546Z,7.80
2022-08-07T01:48:59.941Z,5.20
2022-08-07T01:52:01.153Z,5.88
2022-08-07T01:54:09.642Z,8.68
2022-08-07T01:56:01.485Z,4.70
2022-08-07T01:58:28.887Z,6.07
2022-08-07T02:00:32.070Z,4.53
2022-08-07T02:03:19.034Z,6.40
2022-08-07T02:05:43.147Z,9.77
2022-08-07T02:07:51.156Z,6.28
2022-08-07T02:09:58.734Z,6.55
2022-08-07T02:12:05.281Z,8.80
2022-08-07T02:14:09.447Z,7.97
2022-08-07T02:16:17.581Z,6.68
2022-08-07T02:18:22.787Z,7.25
2022-08-07T02:20:30.587Z,7.60
2022-08-07T02:22:33.182Z,5.63
2022-08-07T02:24:37.129Z,7.35
2022-08-07T02:26:40.926Z,6.75
2022-08-07T02:28:45.792Z,8.43
2022-08-07T02:30:50.369Z,5.75
2022-08-07T02:33:08.960Z,9.55
2022-08-07T02:35:12.182Z,7.22
2022-08-07T02:37:23.878Z,3.72
2022-08-07T02:39:43.112Z,5.07
2022-08-07T02:41:50.737Z,5.03
2022-08-07T02:44:00.577Z,7.90
2022-08-07T02:46:05.364Z,5.22
2022-08-07T02:48:10.033Z,4.30
2022-08-07T02:50:12.469Z,7.18
2022-08-07T02:52:21.623Z,8.68
2022-08-07T02:54:35.825Z,5.60
2022-08-07T02:56:40.015Z,6.50
2022-08-07T02:58:47.294Z,5.20
2022-08-07T03:00:52.371Z,4.63
2022-08-07T03:02:55.547Z,7.53
2022-08-07T03:05:00.233Z,9.95
2022-08-07T03:07:10.647Z,7.97
2022-08-07T03:09:13.394Z,6.30
2022-08-07T03:11:17.097Z,7.03
2022-08-07T03:13:20.191Z,7.90
2022-08-07T03:15:30.273Z,4.28
2022-08-07T03:17:52.862Z,6.95
2022-08-07T03:19:56.568Z,6.00
2022-08-07T03:21:59.400Z,6.55
2022-08-07T03:24:18.089Z,5.83
2022-08-07T03:26:28.215Z,3.65
2022-08-07T03:28:37.208Z,4.38
2022-08-07T03:30:41.538Z,5.35
2022-08-07T03:32:57.049Z,5.05
2022-08-07T03:35:17.662Z,5.70
2022-08-07T03:37:27.723Z,5.28
2022-08-07T03:39:45.903Z,5.22
2022-08-07T03:41:55.644Z,5.60
2022-08-07T03:44:03.643Z,4.53
2022-08-07T03:46:18.231Z,7.35
2022-08-07T03:48:20.998Z,4.13
2022-08-07T03:50:25.629Z,4.38
2022-08-07T03:52:31.600Z,3.95
2022-08-07T03:54:54.119Z,5.23
2022-08-07T03:57:01.445Z,4.25
2022-08-07T03:59:12.741Z,4.45
2022-08-07T04:01:16.431Z,8.48
2022-08-07T04:03:18.644Z,4.43
2022-08-07T04:05:23.972Z,5.22
2022-08-07T04:07:41.669Z,5.38
2022-08-07T04:09:50.439Z,6.65
2022-08-07T04:12:26.431Z,7.90
2022-08-07T04:14:37.248Z,5.55
2022-08-07T04:16:37.878Z,8.15
2022-08-07T04:18:59.524Z,5.45
2022-08-07T04:21:04.103Z,7.13
2022-08-07T04:23:09.945Z,5.78
2022-08-07T04:25:25.401Z,4.15
2022-08-07T04:27:35.497Z,7.82
2022-08-07T04:29:58.311Z,5.05
2022-08-07T04:32:09.773Z,4.90
2022-08-07T04:34:16.409Z,4.75
2022-08-07T04:36:22.724Z,6.30
2022-08-07T04:38:28.123Z,6.45
2022-08-07T04:40:32.168Z,5.50
2022-08-07T04:45:03.071Z,5.70
2022-08-07T04:47:08.632Z,5.68
2022-08-07T04:49:24.602Z,7.55
2022-08-07T04:51:37.851Z,4.43
2022-08-07T04:54:18.719Z,4.72
2022-08-07T04:58:12.052Z,6.43
2022-08-07T05:00:08.071Z,5.22
2022-08-07T05:01:46.887Z,5.72
2022-08-07T05:04:06.846Z,6.18
2022-08-07T05:06:22.442Z,5.05
2022-08-07T05:09:07.574Z,7.93
2022-08-07T05:11:19.451Z,7.10
2022-08-07T05:14:54.374Z,5.93
2022-08-07T05:15:59.931Z,4.50
2022-08-07T05:18:12.337Z,5.43
2022-08-07T05:20:22.661Z,3.92
2022-08-07T05:22:26.745Z,5.78
2022-08-07T05:24:40.315Z,4.28
2022-08-07T05:26:46.336Z,5.03
2022-08-07T05:28:53.091Z,5.90
2022-08-07T05:30:56.938Z,5.70
2022-08-07T05:33:03.388Z,7.43
2022-08-07T05:35:08.907Z,8.52
2022-08-07T05:37:10.938Z,7.95
2022-08-07T05:40:05.491Z,4.60
2022-08-07T05:44:12.784Z,8.30
2022-08-07T05:46:16.920Z,7.13
2022-08-07T05:48:26.424Z,4.97
2022-08-07T05:50:30.585Z,5.35
2022-08-07T05:52:32.922Z,5.82
2022-08-07T05:54:53.429Z,4.40
2022-08-07T05:56:58.758Z,3.85
2022-08-07T06:01:08.432Z,5.03
2022-08-07T06:03:14.402Z,4.40
2022-08-07T06:07:22.961Z,5.10
2022-08-07T06:10:05.491Z,5.28
2022-08-07T06:12:07.611Z,5.93
2022-08-07T06:14:13.067Z,5.32
2022-08-07T06:16:23.646Z,3.58
2022-08-07T06:18:32.478Z,5.40
2022-08-07T06:20:49.946Z,5.93
2022-08-07T06:23:04.101Z,4.85
2022-08-07T06:25:23.364Z,5.18
2022-08-07T06:28:00.582Z,3.10
2022-08-07T06:29:47.873Z,3.20
2022-08-07T06:31:51.607Z,4.55
2022-08-07T06:33:53.490Z,4.40
2022-08-07T06:36:12.856Z,3.20
2022-08-07T06:38:20.408Z,6.05
2022-08-07T06:40:22.753Z,4.55
2022-08-07T06:42:36.164Z,2.60
2022-08-07T06:44:40.911Z,3.30
2022-08-07T06:48:44.826Z,3.08
2022-08-07T06:50:48.634Z,1.85
2022-08-07T06:52:55.793Z,2.73
2022-08-07T06:55:32.464Z,2.65
2022-08-07T06:57:21.861Z,3.17
2022-08-07T07:00:12.289Z,2.60
2022-08-07T07:02:08.829Z,2.90
2022-08-07T07:04:32.505Z,3.38
2022-08-07T07:06:39.392Z,2.17
2022-08-07T07:59:55.899Z,3.00
2022-08-07T08:02:10.365Z,4.05
2022-08-07T08:04:14.317Z,3.63
2022-08-07T08:08:34.862Z,4.72
2022-08-07T08:10:40.301Z,3.63
2022-08-07T08:12:52.190Z,2.03
2022-08-07T08:14:54.992Z,4.30
2022-08-07T08:17:56.010Z,7.25
2022-08-07T08:20:17.644Z,3.13
2022-08-07T08:21:55.400Z,4.75
2022-08-07T08:24:07.634Z,2.72
2022-08-07T08:26:29.680Z,5.93
2022-08-07T08:28:37.849Z,4.57
2022-08-07T08:30:51.032Z,3.03
2022-08-07T08:33:10.329Z,3.70
2022-08-07T08:35:28.462Z,5.30
2022-08-07T08:38:01.736Z,3.95
2022-08-07T08:39:58.324Z,3.75
2022-08-07T08:42:06.720Z,3.15
2022-08-07T08:44:59.092Z,3.55
2022-08-07T08:47:31.939Z,3.90
2022-08-07T08:50:35.425Z,3.95
2022-08-07T08:53:05.219Z,5.55
2022-08-07T08:55:55.064Z,8.52
2022-08-07T08:58:13.313Z,8.93
2022-08-07T09:02:40.420Z,4.43
2022-08-07T09:04:52.329Z,6.20
2022-08-07T09:07:03.505Z,5.10
2022-08-07T09:09:30.058Z,4.15
2022-08-07T09:12:20.111Z,3.85
2022-08-07T09:14:58.708Z,6.82
2022-08-07T09:17:59.337Z,2.90
2022-08-07T09:20:34.772Z,3.28
2022-08-07T09:24:54.807Z,2.58
2022-08-07T09:25:17.819Z,4.80
2022-08-07T09:28:00.515Z,4.60
2022-08-07T09:30:09.329Z,2.75
2022-08-07T09:32:39.160Z,4.72
2022-08-07T09:36:04.168Z,4.93
2022-08-07T09:37:53.696Z,4.60
2022-08-07T09:40:05.913Z,2.92
2022-08-07T09:42:55.926Z,4.13
2022-08-07T09:47:23.903Z,3.47
2022-08-07T09:47:58.914Z,4.15
2022-08-07T09:50:21.374Z,4.15
2022-08-07T09:52:40.644Z,6.05
2022-08-07T09:54:57.925Z,6.45
2022-08-07T09:57:06.053Z,4.30
2022-08-07T09:59:21.670Z,7.65
2022-08-07T10:01:51.019Z,6.60
2022-08-07T10:04:32.613Z,4.00
2022-08-07T10:07:24.415Z,5.47
2022-08-07T10:10:11.952Z,4.07
2022-08-07T10:12:29.344Z,3.03
2022-08-07T10:15:01.582Z,4.22
2022-08-07T10:17:23.684Z,3.65
2022-08-07T10:19:38.663Z,4.45
2022-08-07T10:22:14.255Z,2.97
2022-08-07T10:24:38.130Z,6.68
2022-08-07T10:26:53.333Z,6.17
2022-08-07T10:29:04.632Z,4.88
2022-08-07T10:31:24.684Z,3.50
2022-08-07T10:34:05.556Z,4.68
2022-08-07T10:36:47.572Z,3.20
2022-08-07T10:38:52.420Z,3.67
2022-08-07T10:41:11.977Z,2.85
2022-08-07T10:43:34.625Z,2.72
2022-08-07T10:45:57.434Z,3.58
2022-08-07T10:48:44.021Z,3.42
2022-08-07T10:51:39.329Z,5.13
2022-08-07T10:54:11.796Z,3.03
2022-08-07T10:56:31.151Z,3.45
2022-08-07T10:59:13.569Z,6.65
2022-08-07T11:02:05.438Z,4.63
2022-08-07T11:04:39.933Z,5.18
2022-08-07T11:07:03.480Z,3.35
2022-08-07T11:10:09.293Z,3.63
2022-08-07T11:11:59.329Z,3.33
2022-08-07T11:14:56.786Z,3.38
2022-08-07T11:16:54.789Z,5.25
2022-08-07T11:19:10.013Z,6.97
2022-08-07T11:21:24.746Z,3.97
2022-08-07T11:24:13.417Z,4.10
2022-08-07T11:26:49.968Z,3.75
2022-08-07T11:29:01.740Z,7.00
2022-08-07T11:31:59.629Z,3.40
2022-08-07T11:34:10.149Z,4.57
2022-08-07T11:36:34.761Z,8.77
2022-08-07T11:38:58.195Z,7.00
2022-08-07T11:41:18.223Z,6.18
2022-08-07T11:43:54.705Z,5.35
2022-08-07T11:46:10.700Z,4.90
2022-08-07T11:48:35.358Z,4.40
2022-08-07T11:50:58.465Z,3.03
2022-08-07T11:53:37.699Z,3.55
2022-08-07T11:58:53.335Z,4.90
2022-08-07T12:01:19.985Z,6.88
2022-08-07T12:03:46.881Z,5.75
2022-08-07T12:06:37.379Z,4.28
2022-08-07T12:08:48.584Z,5.38
2022-08-07T12:11:20.449Z,5.90
2022-08-07T12:13:44.912Z,4.78
2022-08-07T12:16:07.075Z,7.95
2022-08-07T12:18:30.733Z,8.15
2022-08-07T12:20:42.556Z,4.00
2022-08-07T12:22:58.789Z,5.30
2022-08-07T12:25:09.118Z,4.90
2022-08-07T12:28:04.050Z,5.40
2022-08-07T12:30:09.184Z,3.75
2022-08-07T12:32:51.032Z,4.97
2022-08-07T12:34:56.333Z,8.45
2022-08-07T12:37:00.658Z,6.28
2022-08-07T12:39:41.155Z,5.18
2022-08-07T12:41:49.426Z,4.18
2022-08-07T12:44:04.259Z,4.40
2022-08-07T12:46:32.791Z,5.72
2022-08-07T12:48:55.282Z,5.93
2022-08-07T12:51:17.705Z,3.95
2022-08-07T12:54:03.090Z,3.80
2022-08-07T12:56:26.646Z,3.50
2022-08-07T12:58:35.403Z,4.20
2022-08-07T13:01:07.788Z,3.67
2022-08-07T13:03:27.558Z,4.90
2022-08-07T13:06:04.652Z,3.88
2022-08-07T13:08:53.000Z,3.28
2022-08-07T13:11:25.765Z,4.60
2022-08-07T13:14:02.245Z,5.68
2022-08-07T13:16:28.769Z,4.05
2022-08-07T13:18:53.967Z,3.63
2022-08-07T13:21:05.389Z,7.28
2022-08-07T13:24:00.822Z,15.52
2022-08-07T13:25:45.884Z,5.53
2022-08-07T13:28:11.559Z,7.32
2022-08-07T13:30:18.903Z,4.18
2022-08-07T13:34:30.500Z,5.10
2022-08-07T13:36:05.380Z,5.25
2022-08-07T13:38:25.964Z,4.45
2022-08-07T13:40:42.452Z,5.40
2022-08-07T13:42:48.817Z,6.40
2022-08-07T13:45:11.778Z,2.83
2022-08-07T13:47:15.947Z,3.70
2022-08-07T13:50:32.541Z,4.70
2022-08-07T13:52:05.483Z,4.82
2022-08-07T13:54:30.283Z,4.45
2022-08-07T13:56:41.355Z,3.55
2022-08-07T13:58:57.023Z,2.70
2022-08-07T14:01:08.845Z,3.33
2022-08-07T14:03:13.815Z,3.70
2022-08-07T14:05:21.620Z,4.35
2022-08-07T14:07:31.215Z,27.25
2022-08-07T14:10:01.933Z,3.88
2022-08-07T14:12:07.432Z,4.30
2022-08-07T14:14:15.650Z,5.40
2022-08-07T14:16:17.954Z,3.45
2022-08-07T14:18:32.691Z,4.00
2022-08-07T14:20:42.384Z,4.25
2022-08-07T14:22:52.649Z,5.35
2022-08-07T14:25:00.550Z,5.28
2022-08-07T14:28:11.417Z,4.75
2022-08-07T14:30:07.714Z,4.78
2022-08-07T14:32:01.660Z,4.50
2022-08-07T14:34:07.264Z,7.13
2022-08-07T14:36:10.582Z,4.22
2022-08-07T14:40:49.511Z,5.95
2022-08-07T14:43:57.455Z,6.45
2022-08-07T14:47:59.141Z,6.13
2022-08-07T14:50:06.962Z,3.92
2022-08-07T14:52:13.716Z,4.15
2022-08-07T14:54:33.047Z,6.88
2022-08-07T14:56:42.073Z,4.25
2022-08-07T14:58:53.949Z,6.63
2022-08-07T15:00:59.200Z,8.65
2022-08-07T15:05:30.394Z,5.90
2022-08-07T15:10:01.987Z,5.00
2022-08-07T15:12:26.165Z,7.53
2022-08-07T15:14:33.914Z,6.80
2022-08-07T15:17:11.601Z,5.23
2022-08-07T15:19:19.056Z,3.67
2022-08-07T15:22:04.351Z,3.15
2022-08-07T15:26:47.941Z,7.88
2022-08-07T15:28:59.500Z,5.88
2022-08-07T15:33:46.166Z,4.10
2022-08-07T15:36:01.455Z,3.92
2022-08-07T15:38:17.678Z,6.50
2022-08-07T15:40:35.072Z,4.20
2022-08-07T15:42:47.623Z,4.72
2022-08-07T15:44:52.454Z,4.35
2022-08-07T15:46:58.540Z,4.13
2022-08-07T15:49:15.195Z,4.30
2022-08-07T15:51:19.617Z,4.18
2022-08-07T15:53:51.864Z,5.85
2022-08-07T15:58:07.253Z,4.55
2022-08-07T16:00:31.132Z,4.00
2022-08-07T16:02:47.287Z,5.60
2022-08-07T16:04:58.089Z,5.30
2022-08-07T16:07:04.763Z,5.35
2022-08-07T16:09:22.378Z,4.47
2022-08-07T16:11:43.287Z,3.30
2022-08-07T16:13:58.785Z,2.95
2022-08-07T16:16:48.291Z,6.72
2022-08-07T16:18:54.576Z,8.07
2022-08-07T16:21:56.884Z,4.05
2022-08-07T16:24:03.207Z,3.67
2022-08-07T16:26:30.665Z,6.65
2022-08-07T16:30:06.066Z,4.97
2022-08-07T16:31:51.259Z,3.60
2022-08-07T16:34:10.512Z,3.60
2022-08-07T16:36:34.219Z,3.95
2022-08-07T16:39:02.063Z,5.53
2022-08-07T16:41:16.837Z,4.95
2022-08-07T16:44:06.280Z,3.47
2022-08-07T16:47:04.465Z,3.38
2022-08-07T16:50:20.314Z,3.30
2022-08-07T16:52:49.183Z,4.05
2022-08-07T16:54:54.978Z,3.20
2022-08-07T16:58:01.997Z,3.40
2022-08-07T17:00:14.842Z,3.95
2022-08-07T17:02:53.223Z,5.05
2022-08-07T17:06:01.547Z,4.90
2022-08-07T17:07:58.246Z,4.00
2022-08-07T17:10:30.225Z,3.78
2022-08-07T17:12:47.458Z,6.47
2022-08-07T17:15:01.880Z,5.00
2022-08-07T17:17:15.969Z,3.03
2022-08-07T17:20:02.332Z,5.65
2022-08-07T17:22:10.654Z,3.08
2022-08-07T17:24:48.142Z,4.80
2022-08-07T17:26:58.621Z,7.03
2022-08-07T17:29:04.794Z,4.15
2022-08-07T17:31:25.838Z,7.85
2022-08-07T17:34:08.748Z,4.15
2022-08-07T17:36:03.053Z,5.50
2022-08-07T17:38:33.178Z,3.10
2022-08-07T17:40:50.629Z,4.75
2022-08-07T17:43:14.946Z,4.38
2022-08-07T17:45:29.658Z,6.78
2022-08-07T17:47:42.459Z,3.65
2022-08-07T17:50:00.469Z,4.57
2022-08-07T17:52:39.577Z,6.55
2022-08-07T17:54:54.084Z,4.82
2022-08-07T17:57:18.724Z,6.70
2022-08-07T17:59:35.899Z,3.55
2022-08-07T18:01:58.105Z,3.75
2022-08-07T18:04:39.598Z,4.03
2022-08-07T18:07:20.586Z,4.30
2022-08-07T18:10:05.276Z,6.32
2022-08-07T18:12:28.557Z,4.18
2022-08-07T18:14:54.915Z,6.35
2022-08-07T18:17:06.390Z,6.88
2022-08-07T18:21:04.455Z,6.28
2022-08-07T18:22:02.389Z,6.70
2022-08-07T18:24:33.922Z,4.18
2022-08-07T18:26:40.576Z,5.78
2022-08-07T18:28:57.667Z,8.27
2022-08-07T18:31:07.504Z,5.20
2022-08-07T18:33:54.918Z,8.13
2022-08-07T18:36:16.457Z,7.47
2022-08-07T18:38:55.357Z,7.38
2022-08-07T18:40:59.305Z,5.68
2022-08-07T18:43:42.584Z,8.75
2022-08-07T18:46:25.839Z,8.20
2022-08-07T18:50:19.617Z,10.32
2022-08-07T18:52:34.720Z,9.98
2022-08-07T18:54:27.828Z,7.75
2022-08-07T18:56:58.297Z,10.38
2022-08-07T18:59:47.704Z,10.30
2022-08-07T19:02:19.428Z,10.38
2022-08-07T19:04:58.060Z,15.45
2022-08-07T19:07:35.210Z,13.85
2022-08-07T19:09:59.298Z,13.40
2022-08-07T19:12:20.921Z,12.20
2022-08-07T19:14:52.442Z,21.40
2022-08-07T19:17:06.630Z,15.60
2022-08-07T19:19:31.731Z,16.02
2022-08-07T19:21:56.955Z,10.77
2022-08-07T19:24:30.669Z,16.50
2022-08-07T19:27:01.994Z,11.40
2022-08-07T19:31:04.153Z,19.80
2022-08-07T19:32:08.172Z,18.58
2022-08-07T19:34:01.503Z,12.60
2022-08-07T19:36:08.917Z,14.98
2022-08-07T19:38:17.228Z,17.33
2022-08-07T19:40:31.266Z,14.27
2022-08-07T19:42:43.132Z,18.60
2022-08-07T19:44:50.147Z,19.92
2022-08-07T19:46:58.043Z,14.40
2022-08-07T19:49:06.051Z,10.23
2022-08-07T19:51:19.149Z,15.50
2022-08-07T19:54:34.443Z,12.30
2022-08-07T19:55:57.297Z,12.85
2022-08-07T19:58:13.144Z,13.27
2022-08-07T20:00:29.197Z,19.77
2022-08-07T20:02:39.179Z,12.70
2022-08-07T20:04:48.954Z,15.23
2022-08-07T20:06:54.210Z,20.40
2022-08-07T20:08:59.444Z,15.70
2022-08-07T20:11:10.118Z,18.20
2022-08-07T20:13:22.986Z,15.20
2022-08-07T20:15:27.879Z,12.13
2022-08-07T20:17:38.667Z,14.35
2022-08-07T20:19:48.042Z,19.90
2022-08-07T20:22:00.234Z,16.63
2022-08-07T20:24:05.988Z,11.07
2022-08-07T20:26:10.288Z,15.07
2022-08-07T20:28:14.889Z,13.63
2022-08-07T20:30:21.748Z,13.02
2022-08-07T20:32:40.349Z,12.20
2022-08-07T20:34:51.198Z,9.63
2022-08-07T20:36:58.665Z,10.50
2022-08-07T20:39:17.853Z,9.73
2022-08-07T20:41:34.162Z,10.90
2022-08-07T20:43:47.829Z,10.85
2022-08-07T20:46:28.849Z,10.10
2022-08-07T20:48:30.267Z,10.80
2022-08-07T20:50:33.669Z,15.63
2022-08-07T20:52:52.432Z,11.75
2022-08-07T20:54:56.287Z,11.60
2022-08-07T20:57:08.368Z,11.95
2022-08-07T21:00:04.879Z,9.18
2022-08-07T21:01:45.947Z,11.48
2022-08-07T21:04:22.960Z,11.65
2022-08-07T21:06:28.204Z,11.55
2022-08-07T21:08:42.540Z,9.32
2022-08-07T21:10:46.189Z,10.73
2022-08-07T21:12:49.935Z,14.23
2022-08-07T21:14:56.159Z,11.82
2022-08-07T21:18:00.590Z,10.45
2022-08-07T21:19:32.035Z,18.63
2022-08-07T21:21:57.510Z,8.93
2022-08-07T21:24:25.575Z,11.38
2022-08-07T21:26:50.583Z,10.30
2022-08-07T21:28:58.232Z,10.85
2022-08-07T21:31:14.291Z,12.70
2022-08-07T21:33:41.283Z,8.93
2022-08-07T21:36:05.376Z,9.30
2022-08-07T21:38:27.889Z,8.40
2022-08-07T21:40:41.781Z,10.88
2022-08-07T21:42:52.959Z,10.48
2022-08-07T21:45:24.372Z,12.57
2022-08-07T21:47:38.142Z,10.27
2022-08-07T21:50:07.138Z,8.93
2022-08-07T21:52:36.757Z,8.75
2022-08-07T21:54:53.193Z,14.15
2022-08-07T21:57:31.229Z,9.75
2022-08-07T22:00:09.601Z,10.18
2022-08-07T22:02:42.269Z,12.45
2022-08-07T22:04:53.791Z,11.43
2022-08-07T22:07:35.755Z,12.10
2022-08-07T22:09:55.031Z,12.77
2022-08-07T22:12:27.380Z,14.98
2022-08-07T22:15:00.127Z,17.98
2022-08-07T22:17:04.253Z,10.88
2022-08-07T22:19:12.271Z,11.63
2022-08-07T22:21:20.423Z,10.88
2022-08-07T22:23:40.203Z,9.95
2022-08-07T22:25:57.019Z,8.63
2022-08-07T22:28:32.156Z,7.93
2022-08-07T22:31:07.391Z,7.53
2022-08-07T22:33:15.030Z,13.25
2022-08-07T22:35:17.988Z,8.93
2022-08-07T22:38:04.665Z,11.65
2022-08-07T22:40:15.206Z,7.05
2022-08-07T22:42:29.512Z,8.98
2022-08-07T22:44:35.678Z,11.30
2022-08-07T22:47:03.604Z,8.50
2022-08-07T22:49:33.847Z,12.52
2022-08-07T22:52:00.523Z,11.43
2022-08-07T22:54:31.540Z,9.77
2022-08-07T22:57:04.086Z,10.52
2022-08-07T22:59:15.638Z,9.95
2022-08-07T23:01:59.191Z,8.95
2022-08-07T23:04:57.050Z,8.38
2022-08-07T23:07:31.915Z,12.85
2022-08-07T23:10:06.048Z,10.02
2022-08-07T23:12:34.275Z,10.80
2022-08-07T23:15:03.497Z,9.85
2022-08-07T23:17:33.198Z,10.30
2022-08-07T23:20:05.839Z,9.10
2022-08-07T23:22:26.634Z,10.30
2022-08-07T23:24:34.307Z,7.78
2022-08-07T23:27:13.338Z,7.72
2022-08-07T23:29:43.184Z,10.93
2022-08-07T23:34:22.055Z,9.95
2022-08-07T23:35:12.350Z,9.90
2022-08-07T23:37:19.271Z,11.15
2022-08-07T23:39:43.387Z,11.75
2022-08-07T23:42:08.871Z,9.30
2022-08-07T23:44:42.266Z,9.07
2022-08-07T23:47:18.253Z,9.82
2022-08-07T23:49:50.978Z,13.65
2022-08-07T23:52:59.747Z,11.05
2022-08-07T23:54:58.349Z,9.45
2022-08-07T23:57:03.708Z,8.75
